sensor_id;sensor_type;location;lat;lon;timestamp;pressure;altitude;pressure_sealevel;temperature;humidity
61010;BME280;46897;55.340;86.082;2023-03-25T00:02:13;100523.41;;;-3.59;68.63
61010;BME280;46897;55.340;86.082;2023-03-25T00:04:42;100364.69;;;-4.57;68.35
61010;BME280;46897;55.340;86.082;2023-03-25T00:07:11;100485.72;;;-3.90;68.70
61010;BME280;46897;55.340;86.082;2023-03-25T00:09:41;100471.13;;;-3.90;68.59
61010;BME280;46897;55.340;86.082;2023-03-25T00:12:10;100370.41;;;-4.72;68.55
61010;BME280;46897;55.340;86.082;2023-03-25T00:14:41;100388.41;;;-4.34;68.71
61010;BME280;46897;55.340;86.082;2023-03-25T00:17:11;100479.00;;;-3.82;68.79
61010;BME280;46897;55.340;86.082;2023-03-25T00:19:41;100472.66;;;-3.98;68.53
61010;BME280;46897;55.340;86.082;2023-03-25T00:22:11;100436.34;;;-4.04;68.55
61010;BME280;46897;55.340;86.082;2023-03-25T00:24:40;100439.91;;;-3.99;68.86
61010;BME280;46897;55.340;86.082;2023-03-25T00:27:10;100502.66;;;-3.62;69.06
61010;BME280;46897;55.340;86.082;2023-03-25T00:29:40;100392.31;;;-4.09;69.01
61010;BME280;46897;55.340;86.082;2023-03-25T00:32:11;100268.28;;;-5.02;68.47
61010;BME280;46897;55.340;86.082;2023-03-25T00:34:41;100465.72;;;-3.52;68.93
61010;BME280;46897;55.340;86.082;2023-03-25T00:37:14;100476.31;;;-3.40;69.21
61010;BME280;46897;55.340;86.082;2023-03-25T00:39:48;100350.97;;;-4.07;68.76
61010;BME280;46897;55.340;86.082;2023-03-25T00:42:18;100418.06;;;-3.66;68.96
61010;BME280;46897;55.340;86.082;2023-03-25T00:44:53;100393.88;;;-3.68;68.91
61010;BME280;46897;55.340;86.082;2023-03-25T00:47:23;100434.88;;;-3.41;68.87
61010;BME280;46897;55.340;86.082;2023-03-25T00:49:53;100470.84;;;-3.03;69.30
61010;BME280;46897;55.340;86.082;2023-03-25T00:52:22;100433.31;;;-3.30;68.98
61010;BME280;46897;55.340;86.082;2023-03-25T00:54:52;100371.00;;;-3.42;69.12
61010;BME280;46897;55.340;86.082;2023-03-25T00:57:21;100505.06;;;-2.68;69.12
61010;BME280;46897;55.340;86.082;2023-03-25T00:59:50;100511.44;;;-2.43;68.72
61010;BME280;46897;55.340;86.082;2023-03-25T01:02:19;100506.34;;;-2.37;68.69
61010;BME280;46897;55.340;86.082;2023-03-25T01:04:50;100501.22;;;-2.30;69.18
61010;BME280;46897;55.340;86.082;2023-03-25T01:07:19;100456.03;;;-2.52;68.69
61010;BME280;46897;55.340;86.082;2023-03-25T01:09:50;100471.78;;;-2.37;68.89
61010;BME280;46897;55.340;86.082;2023-03-25T01:12:19;100464.84;;;-2.38;68.66
61010;BME280;46897;55.340;86.082;2023-03-25T01:14:48;100511.97;;;-2.03;68.92
61010;BME280;46897;55.340;86.082;2023-03-25T01:17:19;100502.47;;;-2.01;68.48
61010;BME280;46897;55.340;86.082;2023-03-25T01:19:49;100509.53;;;-1.89;68.81
61010;BME280;46897;55.340;86.082;2023-03-25T01:22:19;100477.34;;;-2.06;68.77
61010;BME280;46897;55.340;86.082;2023-03-25T01:24:49;100491.38;;;-1.89;68.80
61010;BME280;46897;55.340;86.082;2023-03-25T01:27:19;100501.88;;;-1.76;68.74
61010;BME280;46897;55.340;86.082;2023-03-25T01:29:48;100475.81;;;-1.86;68.64
61010;BME280;46897;55.340;86.082;2023-03-25T01:32:18;100506.50;;;-1.48;68.77
61010;BME280;46897;55.340;86.082;2023-03-25T01:34:47;100520.44;;;-1.36;68.50
61010;BME280;46897;55.340;86.082;2023-03-25T01:37:18;100509.19;;;-1.39;68.58
61010;BME280;46897;55.340;86.082;2023-03-25T01:39:52;100383.19;;;-1.96;68.26
61010;BME280;46897;55.340;86.082;2023-03-25T01:42:21;100520.69;;;-1.07;68.34
61010;BME280;46897;55.340;86.082;2023-03-25T01:45:13;100524.25;;;-0.97;68.41
61010;BME280;46897;55.340;86.082;2023-03-25T01:47:43;100508.63;;;-1.02;68.15
61010;BME280;46897;55.340;86.082;2023-03-25T01:50:12;100481.72;;;-1.07;68.00
61010;BME280;46897;55.340;86.082;2023-03-25T01:52:47;100527.88;;;-0.75;67.92
61010;BME280;46897;55.340;86.082;2023-03-25T01:55:18;100495.81;;;-0.79;67.98
61010;BME280;46897;55.340;86.082;2023-03-25T01:57:48;100510.59;;;-0.64;67.86
61010;BME280;46897;55.340;86.082;2023-03-25T02:00:21;100496.75;;;-0.60;67.82
61010;BME280;46897;55.340;86.082;2023-03-25T02:02:51;100511.63;;;-0.42;67.97
61010;BME280;46897;55.340;86.082;2023-03-25T02:05:25;100507.31;;;-0.38;68.05
61010;BME280;46897;55.340;86.082;2023-03-25T02:07:59;100458.66;;;-0.56;67.67
61010;BME280;46897;55.340;86.082;2023-03-25T02:10:32;100508.19;;;-0.38;67.46
61010;BME280;46897;55.340;86.082;2023-03-25T02:13:06;100392.59;;;-0.97;67.24
61010;BME280;46897;55.340;86.082;2023-03-25T02:15:50;100412.56;;;-0.88;67.29
61010;BME280;46897;55.340;86.082;2023-03-25T02:18:40;100557.81;;;0.04;67.17
61010;BME280;46897;55.340;86.082;2023-03-25T02:21:47;100505.78;;;0.13;67.31
61010;BME280;46897;55.340;86.082;2023-03-25T02:24:52;100385.84;;;-0.60;67.00
61010;BME280;46897;55.340;86.082;2023-03-25T02:28:00;100398.94;;;-0.27;67.02
61010;BME280;46897;55.340;86.082;2023-03-25T02:31:03;100518.00;;;0.46;66.91
61010;BME280;46897;55.340;86.082;2023-03-25T02:37:21;100289.59;;;-0.75;66.66
61010;BME280;46897;55.340;86.082;2023-03-25T02:40:06;100501.56;;;0.70;66.61
61010;BME280;46897;55.340;86.082;2023-03-25T02:42:40;100515.47;;;0.85;66.40
61010;BME280;46897;55.340;86.082;2023-03-25T02:45:16;100513.75;;;0.93;66.42
61010;BME280;46897;55.340;86.082;2023-03-25T02:47:51;100327.03;;;-0.02;66.14
61010;BME280;46897;55.340;86.082;2023-03-25T02:50:26;100501.59;;;1.10;66.23
61010;BME280;46897;55.340;86.082;2023-03-25T02:53:00;100499.81;;;1.14;66.17
61010;BME280;46897;55.340;86.082;2023-03-25T02:55:33;100494.63;;;1.20;66.07
61010;BME280;46897;55.340;86.082;2023-03-25T02:58:06;100352.22;;;0.28;66.06
61010;BME280;46897;55.340;86.082;2023-03-25T03:00:38;100453.75;;;1.02;65.91
61010;BME280;46897;55.340;86.082;2023-03-25T03:03:10;100524.09;;;1.54;65.62
61010;BME280;46897;55.340;86.082;2023-03-25T03:05:42;100513.63;;;1.65;65.96
61010;BME280;46897;55.340;86.082;2023-03-25T03:08:25;100494.50;;;1.60;65.70
61010;BME280;46897;55.340;86.082;2023-03-25T03:11:03;100468.44;;;1.52;65.34
61010;BME280;46897;55.340;86.082;2023-03-25T03:13:59;100514.47;;;1.84;65.11
61010;BME280;46897;55.340;86.082;2023-03-25T03:16:35;100497.94;;;1.81;65.29
61010;BME280;46897;55.340;86.082;2023-03-25T03:19:17;100525.69;;;2.03;65.09
61010;BME280;46897;55.340;86.082;2023-03-25T03:21:55;100523.91;;;2.11;65.31
61010;BME280;46897;55.340;86.082;2023-03-25T03:24:29;100519.56;;;2.15;65.18
61010;BME280;46897;55.340;86.082;2023-03-25T03:27:08;100523.84;;;2.30;64.92
61010;BME280;46897;55.340;86.082;2023-03-25T03:29:51;100532.50;;;2.38;64.98
61010;BME280;46897;55.340;86.082;2023-03-25T03:32:27;100496.00;;;2.20;64.71
61010;BME280;46897;55.340;86.082;2023-03-25T03:35:03;100521.13;;;2.45;64.30
61010;BME280;46897;55.340;86.082;2023-03-25T03:37:36;100523.69;;;2.53;64.82
61010;BME280;46897;55.340;86.082;2023-03-25T03:40:12;100506.25;;;2.56;64.49
61010;BME280;46897;55.340;86.082;2023-03-25T03:42:47;100514.09;;;2.58;64.44
61010;BME280;46897;55.340;86.082;2023-03-25T03:45:21;100517.44;;;2.74;64.53
61010;BME280;46897;55.340;86.082;2023-03-25T03:47:57;100513.97;;;2.73;64.01
61010;BME280;46897;55.340;86.082;2023-03-25T03:50:31;100506.19;;;2.69;64.27
61010;BME280;46897;55.340;86.082;2023-03-25T03:53:07;100513.06;;;2.79;64.09
61010;BME280;46897;55.340;86.082;2023-03-25T03:55:41;100475.72;;;2.62;64.14
61010;BME280;46897;55.340;86.082;2023-03-25T03:58:17;100473.91;;;2.71;64.10
61010;BME280;46897;55.340;86.082;2023-03-25T04:00:55;100508.59;;;2.93;64.35
61010;BME280;46897;55.340;86.082;2023-03-25T04:03:32;100403.53;;;2.50;63.65
61010;BME280;46897;55.340;86.082;2023-03-25T04:06:11;100431.31;;;2.59;64.05
61010;BME280;46897;55.340;86.082;2023-03-25T04:08:48;100380.88;;;2.49;63.56
61010;BME280;46897;55.340;86.082;2023-03-25T04:11:28;100396.53;;;2.53;63.63
61010;BME280;46897;55.340;86.082;2023-03-25T04:14:02;100486.50;;;3.28;63.81
61010;BME280;46897;55.340;86.082;2023-03-25T04:16:33;100478.56;;;3.36;63.59
61010;BME280;46897;55.340;86.082;2023-03-25T04:19:04;100449.13;;;3.17;63.81
61010;BME280;46897;55.340;86.082;2023-03-25T04:21:33;100380.59;;;2.81;63.41
61010;BME280;46897;55.340;86.082;2023-03-25T04:24:03;100467.16;;;3.42;63.37
61010;BME280;46897;55.340;86.082;2023-03-25T04:26:34;100410.00;;;3.05;63.72
61010;BME280;46897;55.340;86.082;2023-03-25T04:29:06;100411.59;;;3.18;63.07
61010;BME280;46897;55.340;86.082;2023-03-25T04:31:36;100362.91;;;3.05;63.53
61010;BME280;46897;55.340;86.082;2023-03-25T04:34:13;100383.75;;;3.14;63.35
61010;BME280;46897;55.340;86.082;2023-03-25T04:36:43;100434.69;;;3.60;63.22
61010;BME280;46897;55.340;86.082;2023-03-25T04:39:13;100446.78;;;3.68;63.09
61010;BME280;46897;55.340;86.082;2023-03-25T04:41:44;100460.47;;;3.92;63.03
61010;BME280;46897;55.340;86.082;2023-03-25T04:44:15;100395.47;;;3.55;62.69
61010;BME280;46897;55.340;86.082;2023-03-25T04:46:44;100450.81;;;3.97;63.05
61010;BME280;46897;55.340;86.082;2023-03-25T04:49:18;100429.13;;;3.86;62.88
61010;BME280;46897;55.340;86.082;2023-03-25T04:51:48;100377.09;;;3.61;63.21
61010;BME280;46897;55.340;86.082;2023-03-25T04:54:18;100427.06;;;4.09;62.62
61010;BME280;46897;55.340;86.082;2023-03-25T04:56:47;100348.97;;;3.74;62.64
61010;BME280;46897;55.340;86.082;2023-03-25T04:59:20;100430.44;;;4.19;62.63
61010;BME280;46897;55.340;86.082;2023-03-25T05:01:49;100438.84;;;4.40;62.39
61010;BME280;46897;55.340;86.082;2023-03-25T05:04:19;100450.88;;;4.53;62.15
61010;BME280;46897;55.340;86.082;2023-03-25T05:06:48;100449.84;;;4.63;62.63
61010;BME280;46897;55.340;86.082;2023-03-25T05:09:19;100448.00;;;4.70;62.29
61010;BME280;46897;55.340;86.082;2023-03-25T05:11:50;100358.78;;;4.20;62.13
61010;BME280;46897;55.340;86.082;2023-03-25T05:14:21;100458.34;;;4.79;61.81
61010;BME280;46897;55.340;86.082;2023-03-25T05:16:50;100366.53;;;4.28;61.98
61010;BME280;46897;55.340;86.082;2023-03-25T05:19:19;100424.06;;;4.88;62.30
61010;BME280;46897;55.340;86.082;2023-03-25T05:21:49;100332.25;;;4.40;61.82
61010;BME280;46897;55.340;86.082;2023-03-25T05:24:18;100334.66;;;4.54;61.74
61010;BME280;46897;55.340;86.082;2023-03-25T05:26:47;100420.38;;;5.00;61.74
61010;BME280;46897;55.340;86.082;2023-03-25T05:29:17;100363.88;;;4.81;61.26
61010;BME280;46897;55.340;86.082;2023-03-25T05:31:47;100444.16;;;5.39;61.65
61010;BME280;46897;55.340;86.082;2023-03-25T05:34:17;100381.75;;;5.08;61.22
61010;BME280;46897;55.340;86.082;2023-03-25T05:36:47;100413.47;;;5.43;61.85
61010;BME280;46897;55.340;86.082;2023-03-25T05:39:16;100437.50;;;5.66;61.51
61010;BME280;46897;55.340;86.082;2023-03-25T05:41:45;100336.63;;;4.91;61.05
61010;BME280;46897;55.340;86.082;2023-03-25T05:44:14;100296.38;;;4.90;61.12
61010;BME280;46897;55.340;86.082;2023-03-25T05:46:46;100299.69;;;5.00;61.16
61010;BME280;46897;55.340;86.082;2023-03-25T05:49:15;100308.63;;;4.91;60.95
61010;BME280;46897;55.340;86.082;2023-03-25T05:51:45;100255.72;;;4.69;60.93
61010;BME280;46897;55.340;86.082;2023-03-25T05:54:16;100328.84;;;5.30;60.73
61010;BME280;46897;55.340;86.082;2023-03-25T05:56:45;100422.09;;;5.91;61.22
61010;BME280;46897;55.340;86.082;2023-03-25T05:59:14;100408.88;;;5.96;60.98
61010;BME280;46897;55.340;86.082;2023-03-25T06:01:43;100414.38;;;5.84;60.96
61010;BME280;46897;55.340;86.082;2023-03-25T06:04:14;100301.78;;;5.26;61.03
61010;BME280;46897;55.340;86.082;2023-03-25T06:06:43;100404.31;;;6.04;60.95
61010;BME280;46897;55.340;86.082;2023-03-25T06:09:13;100413.72;;;6.16;60.92
61010;BME280;46897;55.340;86.082;2023-03-25T06:11:44;100387.47;;;6.15;60.69
61010;BME280;46897;55.340;86.082;2023-03-25T06:14:19;100443.84;;;6.39;60.23
61010;BME280;46897;55.340;86.082;2023-03-25T06:16:51;100317.22;;;5.82;60.45
61010;BME280;46897;55.340;86.082;2023-03-25T06:19:24;100295.06;;;5.55;60.21
61010;BME280;46897;55.340;86.082;2023-03-25T06:21:53;100411.13;;;6.50;60.19
61010;BME280;46897;55.340;86.082;2023-03-25T06:24:23;100317.91;;;5.89;60.12
61010;BME280;46897;55.340;86.082;2023-03-25T06:26:52;100309.31;;;6.21;60.37
61010;BME280;46897;55.340;86.082;2023-03-25T06:29:21;100396.22;;;6.85;60.39
61010;BME280;46897;55.340;86.082;2023-03-25T06:31:50;100396.00;;;6.95;60.06
61010;BME280;46897;55.340;86.082;2023-03-25T06:34:24;100350.75;;;6.82;59.40
61010;BME280;46897;55.340;86.082;2023-03-25T06:36:53;100299.97;;;6.78;59.53
61010;BME280;46897;55.340;86.082;2023-03-25T06:39:22;100409.75;;;7.68;59.72
61010;BME280;46897;55.340;86.082;2023-03-25T06:41:52;100321.63;;;7.51;59.62
61010;BME280;46897;55.340;86.082;2023-03-25T06:44:22;100394.31;;;8.16;59.47
61010;BME280;46897;55.340;86.082;2023-03-25T06:46:51;100323.09;;;7.89;59.38
61010;BME280;46897;55.340;86.082;2023-03-25T06:49:21;100330.50;;;8.33;59.06
61010;BME280;46897;55.340;86.082;2023-03-25T06:51:52;100329.31;;;8.68;58.89
61010;BME280;46897;55.340;86.082;2023-03-25T06:54:21;100388.56;;;9.35;59.06
61010;BME280;46897;55.340;86.082;2023-03-25T06:56:50;100407.16;;;9.80;58.65
61010;BME280;46897;55.340;86.082;2023-03-25T06:59:20;100334.38;;;9.72;58.50
61010;BME280;46897;55.340;86.082;2023-03-25T07:01:49;100280.22;;;9.36;57.61
61010;BME280;46897;55.340;86.082;2023-03-25T07:04:18;100343.56;;;10.07;57.77
61010;BME280;46897;55.340;86.082;2023-03-25T07:06:48;100348.53;;;10.15;57.48
61010;BME280;46897;55.340;86.082;2023-03-25T07:09:18;100381.59;;;10.49;57.38
61010;BME280;46897;55.340;86.082;2023-03-25T07:11:48;100351.38;;;10.54;57.51
61010;BME280;46897;55.340;86.082;2023-03-25T07:14:18;100342.78;;;10.90;57.26
61010;BME280;46897;55.340;86.082;2023-03-25T07:16:47;100357.34;;;11.21;57.10
61010;BME280;46897;55.340;86.082;2023-03-25T07:19:17;100247.78;;;11.03;56.37
61010;BME280;46897;55.340;86.082;2023-03-25T07:21:46;100342.53;;;11.94;56.25
61010;BME280;46897;55.340;86.082;2023-03-25T07:24:15;100305.44;;;11.74;55.71
61010;BME280;46897;55.340;86.082;2023-03-25T07:26:46;100262.78;;;11.61;55.53
61010;BME280;46897;55.340;86.082;2023-03-25T07:29:15;100331.97;;;12.12;55.67
61010;BME280;46897;55.340;86.082;2023-03-25T07:31:45;100358.78;;;12.25;55.47
61010;BME280;46897;55.340;86.082;2023-03-25T07:34:15;100356.22;;;12.41;55.36
61010;BME280;46897;55.340;86.082;2023-03-25T07:36:44;100370.63;;;12.71;55.07
61010;BME280;46897;55.340;86.082;2023-03-25T07:39:13;100336.41;;;12.83;54.96
61010;BME280;46897;55.340;86.082;2023-03-25T07:41:42;100357.94;;;13.11;54.73
61010;BME280;46897;55.340;86.082;2023-03-25T07:44:15;100322.88;;;13.05;54.17
61010;BME280;46897;55.340;86.082;2023-03-25T07:46:47;100365.09;;;13.27;53.86
61010;BME280;46897;55.340;86.082;2023-03-25T07:49:16;100334.53;;;13.02;53.31
61010;BME280;46897;55.340;86.082;2023-03-25T07:51:46;100312.72;;;12.78;53.30
61010;BME280;46897;55.340;86.082;2023-03-25T07:54:15;100342.25;;;12.89;53.32
61010;BME280;46897;55.340;86.082;2023-03-25T07:56:44;100246.75;;;12.18;52.74
61010;BME280;46897;55.340;86.082;2023-03-25T07:59:15;100331.72;;;12.70;52.84
61010;BME280;46897;55.340;86.082;2023-03-25T08:01:45;100279.94;;;12.44;53.01
61010;BME280;46897;55.340;86.082;2023-03-25T08:04:14;100350.53;;;12.83;53.16
61010;BME280;46897;55.340;86.082;2023-03-25T08:06:43;100265.78;;;12.09;52.49
61010;BME280;46897;55.340;86.082;2023-03-25T08:09:12;100284.00;;;11.97;52.13
61010;BME280;46897;55.340;86.082;2023-03-25T08:11:42;100233.97;;;11.34;52.18
61010;BME280;46897;55.340;86.082;2023-03-25T08:14:11;100262.53;;;11.28;53.09
61010;BME280;46897;55.340;86.082;2023-03-25T08:16:42;100320.50;;;11.54;52.70
61010;BME280;46897;55.340;86.082;2023-03-25T08:19:11;100272.88;;;11.34;52.79
61010;BME280;46897;55.340;86.082;2023-03-25T08:21:40;100246.94;;;11.21;52.95
61010;BME280;46897;55.340;86.082;2023-03-25T08:24:09;100315.25;;;11.53;52.47
61010;BME280;46897;55.340;86.082;2023-03-25T08:26:40;100220.28;;;10.66;52.64
61010;BME280;46897;55.340;86.082;2023-03-25T08:29:10;100179.69;;;10.26;52.43
61010;BME280;46897;55.340;86.082;2023-03-25T08:31:42;100249.81;;;10.36;52.94
61010;BME280;46897;55.340;86.082;2023-03-25T08:34:13;100222.97;;;10.03;52.90
61010;BME280;46897;55.340;86.082;2023-03-25T08:36:43;100323.13;;;10.75;53.26
61010;BME280;46897;55.340;86.082;2023-03-25T08:39:12;100304.88;;;10.90;52.97
61010;BME280;46897;55.340;86.082;2023-03-25T08:41:43;100326.53;;;11.58;52.33
61010;BME280;46897;55.340;86.082;2023-03-25T08:44:13;100306.09;;;11.79;52.59
61010;BME280;46897;55.340;86.082;2023-03-25T08:46:44;100294.41;;;11.83;53.09
61010;BME280;46897;55.340;86.082;2023-03-25T08:49:13;100213.69;;;11.33;53.26
61010;BME280;46897;55.340;86.082;2023-03-25T08:51:42;100295.75;;;12.11;53.31
61010;BME280;46897;55.340;86.082;2023-03-25T08:54:11;100305.59;;;12.26;52.67
61010;BME280;46897;55.340;86.082;2023-03-25T08:56:41;100314.84;;;12.36;51.86
61010;BME280;46897;55.340;86.082;2023-03-25T08:59:10;100285.66;;;12.36;51.99
61010;BME280;46897;55.340;86.082;2023-03-25T09:01:40;100297.06;;;12.56;52.11
61010;BME280;46897;55.340;86.082;2023-03-25T09:04:12;100280.63;;;12.83;52.15
61010;BME280;46897;55.340;86.082;2023-03-25T09:06:42;100235.31;;;12.86;51.87
61010;BME280;46897;55.340;86.082;2023-03-25T09:09:31;100227.22;;;13.05;51.99
61010;BME280;46897;55.340;86.082;2023-03-25T09:12:00;100327.03;;;13.44;51.72
61010;BME280;46897;55.340;86.082;2023-03-25T09:14:29;100291.06;;;13.03;52.13
61010;BME280;46897;55.340;86.082;2023-03-25T09:16:59;100299.22;;;12.83;52.14
61010;BME280;46897;55.340;86.082;2023-03-25T09:19:30;100279.06;;;12.61;51.99
61010;BME280;46897;55.340;86.082;2023-03-25T09:21:59;100312.66;;;12.62;51.68
61010;BME280;46897;55.340;86.082;2023-03-25T09:24:28;100284.16;;;12.48;51.79
61010;BME280;46897;55.340;86.082;2023-03-25T09:27:00;100298.59;;;12.60;51.48
61010;BME280;46897;55.340;86.082;2023-03-25T09:29:30;100225.53;;;12.35;50.74
61010;BME280;46897;55.340;86.082;2023-03-25T09:32:00;100320.22;;;13.71;50.07
61010;BME280;46897;55.340;86.082;2023-03-25T09:34:31;100213.69;;;14.19;48.88
61010;BME280;46897;55.340;86.082;2023-03-25T09:37:00;100245.34;;;14.84;48.16
61010;BME280;46897;55.340;86.082;2023-03-25T09:39:30;100214.34;;;14.53;47.80
61010;BME280;46897;55.340;86.082;2023-03-25T09:42:26;100276.69;;;14.34;47.65
61010;BME280;46897;55.340;86.082;2023-03-25T09:45:05;100286.47;;;13.72;48.89
61010;BME280;46897;55.340;86.082;2023-03-25T09:47:43;100232.72;;;12.84;49.57
61010;BME280;46897;55.340;86.082;2023-03-25T09:50:18;100242.00;;;12.42;49.90
61010;BME280;46897;55.340;86.082;2023-03-25T09:52:53;100257.66;;;11.94;50.24
61010;BME280;46897;55.340;86.082;2023-03-25T09:55:25;100309.91;;;11.92;50.46
61010;BME280;46897;55.340;86.082;2023-03-25T09:58:01;100173.59;;;10.84;50.70
61010;BME280;46897;55.340;86.082;2023-03-25T10:00:31;100225.66;;;11.04;51.30
61010;BME280;46897;55.340;86.082;2023-03-25T10:03:10;100285.47;;;11.29;51.19
61010;BME280;46897;55.340;86.082;2023-03-25T10:05:53;100319.22;;;11.44;51.27
61010;BME280;46897;55.340;86.082;2023-03-25T10:08:36;100319.06;;;11.47;51.17
61010;BME280;46897;55.340;86.082;2023-03-25T10:11:11;100293.03;;;11.17;51.23
61010;BME280;46897;55.340;86.082;2023-03-25T10:13:47;100312.63;;;11.34;51.38
61010;BME280;46897;55.340;86.082;2023-03-25T10:16:25;100223.09;;;10.63;51.23
61010;BME280;46897;55.340;86.082;2023-03-25T10:19:09;100215.94;;;10.45;51.45
61010;BME280;46897;55.340;86.082;2023-03-25T10:21:49;100191.72;;;10.13;51.54
61010;BME280;46897;55.340;86.082;2023-03-25T10:24:23;100309.31;;;10.69;51.41
61010;BME280;46897;55.340;86.082;2023-03-25T10:26:56;100303.13;;;10.26;51.49
61010;BME280;46897;55.340;86.082;2023-03-25T10:29:30;100078.50;;;8.95;51.71
61010;BME280;46897;55.340;86.082;2023-03-25T10:32:05;100266.91;;;9.85;51.92
61010;BME280;46897;55.340;86.082;2023-03-25T10:34:38;100262.72;;;9.79;52.06
61010;BME280;46897;55.340;86.082;2023-03-25T10:37:18;100197.59;;;9.33;52.28
61010;BME280;46897;55.340;86.082;2023-03-25T10:39:50;100248.81;;;9.52;52.50
61010;BME280;46897;55.340;86.082;2023-03-25T10:42:25;100315.50;;;9.81;52.23
61010;BME280;46897;55.340;86.082;2023-03-25T10:44:55;100269.13;;;9.50;52.42
61010;BME280;46897;55.340;86.082;2023-03-25T10:47:27;100303.81;;;9.64;52.55
61010;BME280;46897;55.340;86.082;2023-03-25T10:49:58;100265.13;;;9.40;52.58
61010;BME280;46897;55.340;86.082;2023-03-25T10:52:29;100233.63;;;9.12;52.58
61010;BME280;46897;55.340;86.082;2023-03-25T10:54:59;100254.84;;;9.32;52.66
61010;BME280;46897;55.340;86.082;2023-03-25T10:57:30;100268.16;;;9.53;52.70
61010;BME280;46897;55.340;86.082;2023-03-25T11:00:04;100169.28;;;8.91;52.61
61010;BME280;46897;55.340;86.082;2023-03-25T11:02:39;100275.50;;;9.68;52.55
61010;BME280;46897;55.340;86.082;2023-03-25T11:05:08;100195.69;;;9.14;52.46
61010;BME280;46897;55.340;86.082;2023-03-25T11:07:49;100211.28;;;9.20;52.42
61010;BME280;46897;55.340;86.082;2023-03-25T11:10:22;100243.44;;;9.32;52.27
61010;BME280;46897;55.340;86.082;2023-03-25T11:12:53;100257.63;;;9.29;52.46
61010;BME280;46897;55.340;86.082;2023-03-25T11:15:28;100142.97;;;8.40;52.04
61010;BME280;46897;55.340;86.082;2023-03-25T11:18:01;100221.94;;;8.70;52.22
61010;BME280;46897;55.340;86.082;2023-03-25T11:20:36;100231.75;;;8.66;52.28
61010;BME280;46897;55.340;86.082;2023-03-25T11:23:23;100190.25;;;8.46;52.35
61010;BME280;46897;55.340;86.082;2023-03-25T11:25:54;100194.97;;;8.62;52.45
61010;BME280;46897;55.340;86.082;2023-03-25T11:28:34;100282.00;;;9.12;52.52
61010;BME280;46897;55.340;86.082;2023-03-25T11:31:15;100272.34;;;9.11;52.65
61010;BME280;46897;55.340;86.082;2023-03-25T11:33:46;100177.03;;;8.72;52.17
61010;BME280;46897;55.340;86.082;2023-03-25T11:36:29;100231.25;;;9.28;52.24
61010;BME280;46897;55.340;86.082;2023-03-25T11:39:02;100120.41;;;8.80;51.88
61010;BME280;46897;55.340;86.082;2023-03-25T11:41:37;100171.59;;;9.22;52.03
61010;BME280;46897;55.340;86.082;2023-03-25T11:44:07;100299.31;;;9.89;51.85
61010;BME280;46897;55.340;86.082;2023-03-25T11:46:48;100249.13;;;9.67;51.56
61010;BME280;46897;55.340;86.082;2023-03-25T11:49:20;100263.38;;;9.62;51.29
61010;BME280;46897;55.340;86.082;2023-03-25T11:51:55;100178.91;;;8.92;51.86
61010;BME280;46897;55.340;86.082;2023-03-25T11:54:27;100274.91;;;9.14;51.88
61010;BME280;46897;55.340;86.082;2023-03-25T11:56:57;100212.53;;;8.63;52.22
61010;BME280;46897;55.340;86.082;2023-03-25T11:59:32;100165.97;;;8.12;52.22
61010;BME280;46897;55.340;86.082;2023-03-25T12:02:17;100186.75;;;7.94;52.42
61010;BME280;46897;55.340;86.082;2023-03-25T12:04:55;100272.53;;;8.31;52.80
61010;BME280;46897;55.340;86.082;2023-03-25T12:07:25;100266.44;;;8.02;53.16
61010;BME280;46897;55.340;86.082;2023-03-25T12:09:58;100154.38;;;7.36;52.89
61010;BME280;46897;55.340;86.082;2023-03-25T12:12:40;100303.53;;;7.96;53.14
61010;BME280;46897;55.340;86.082;2023-03-25T12:15:18;100198.34;;;7.34;53.59
61010;BME280;46897;55.340;86.082;2023-03-25T12:18:10;100233.25;;;7.40;53.54
61010;BME280;46897;55.340;86.082;2023-03-25T12:20:53;100288.16;;;7.54;53.84
61010;BME280;46897;55.340;86.082;2023-03-25T12:23:36;100260.72;;;7.32;53.83
61010;BME280;46897;55.340;86.082;2023-03-25T12:26:13;100241.03;;;7.15;53.95
61010;BME280;46897;55.340;86.082;2023-03-25T12:29:00;100272.59;;;7.17;54.22
61010;BME280;46897;55.340;86.082;2023-03-25T12:31:44;100273.44;;;7.17;54.40
61010;BME280;46897;55.340;86.082;2023-03-25T12:34:24;100278.94;;;7.09;54.43
61010;BME280;46897;55.340;86.082;2023-03-25T12:37:04;100242.09;;;6.78;54.95
61010;BME280;46897;55.340;86.082;2023-03-25T12:40:03;100276.22;;;6.80;54.74
61010;BME280;46897;55.340;86.082;2023-03-25T12:42:43;100264.44;;;6.62;55.35
61010;BME280;46897;55.340;86.082;2023-03-25T12:45:27;100162.44;;;5.75;55.28
61010;BME280;46897;55.340;86.082;2023-03-25T12:48:05;100272.53;;;6.20;55.33
61010;BME280;46897;55.340;86.082;2023-03-25T12:50:46;100162.38;;;5.40;55.39
61010;BME280;46897;55.340;86.082;2023-03-25T12:53:39;100176.75;;;5.25;55.61
61010;BME280;46897;55.340;86.082;2023-03-25T12:56:25;100161.69;;;4.95;55.30
61010;BME280;46897;55.340;86.082;2023-03-25T12:59:25;100176.81;;;4.80;55.54
61010;BME280;46897;55.340;86.082;2023-03-25T13:02:03;100248.16;;;4.98;55.69
61010;BME280;46897;55.340;86.082;2023-03-25T13:04:59;100262.59;;;4.75;55.84
61010;BME280;46897;55.340;86.082;2023-03-25T13:07:35;100250.69;;;4.59;55.99
61010;BME280;46897;55.340;86.082;2023-03-25T13:10:11;100171.69;;;3.82;56.23
61010;BME280;46897;55.340;86.082;2023-03-25T13:12:42;100295.22;;;4.60;56.48
61010;BME280;46897;55.340;86.082;2023-03-25T13:15:19;100157.38;;;3.50;56.72
61010;BME280;46897;55.340;86.082;2023-03-25T13:17:56;100216.84;;;3.98;56.75
61010;BME280;46897;55.340;86.082;2023-03-25T13:20:29;100228.97;;;4.02;57.12
61010;BME280;46897;55.340;86.082;2023-03-25T13:23:03;100261.69;;;4.31;57.33